createdAt,value
2017-01-21T00:00:15.164Z,1008.61
2017-01-21T00:00:55.795Z,1008.59
2017-01-21T00:01:36.504Z,1008.58
2017-01-21T00:02:17.217Z,1008.55
2017-01-21T00:02:57.858Z,1008.58
2017-01-21T00:03:38.537Z,1008.61
2017-01-21T00:04:19.221Z,1008.59
2017-01-21T00:04:59.944Z,1008.59
2017-01-21T00:05:40.503Z,1008.61
2017-01-21T00:06:21.221Z,1008.56
2017-01-21T00:07:01.857Z,1008.59
2017-01-21T00:07:42.526Z,1008.56
2017-01-21T00:08:23.203Z,1008.57
2017-01-21T00:09:03.899Z,1008.61
2017-01-21T00:09:44.533Z,1008.57
2017-01-21T00:10:25.255Z,1008.62
2017-01-21T00:11:05.953Z,1008.61
2017-01-21T00:11:46.588Z,1008.66
2017-01-21T00:12:27.291Z,1008.58
2017-01-21T00:13:07.926Z,1008.62
2017-01-21T00:13:48.560Z,1008.6
2017-01-21T00:14:29.255Z,1008.62
2017-01-21T00:15:10.011Z,1008.61
2017-01-21T00:15:50.647Z,1008.57
2017-01-21T00:16:31.286Z,1008.58
2017-01-21T00:17:11.949Z,1008.57
2017-01-21T00:17:52.641Z,1008.55
2017-01-21T00:18:33.277Z,1008.56
2017-01-21T00:19:13.911Z,1008.55
2017-01-21T00:19:54.601Z,1008.52
2017-01-21T00:20:35.237Z,1008.51
2017-01-21T00:21:15.945Z,1008.57
2017-01-21T00:21:56.592Z,1008.54
2017-01-21T00:22:37.221Z,1008.57
2017-01-21T00:23:17.955Z,1008.55
2017-01-21T00:23:58.659Z,1008.56
2017-01-21T00:24:39.300Z,1008.56
2017-01-21T00:25:19.938Z,1008.59
2017-01-21T00:26:00.679Z,1008.56
2017-01-21T00:26:41.327Z,1008.6
2017-01-21T00:27:21.976Z,1008.62
2017-01-21T00:28:02.665Z,1008.62
2017-01-21T00:28:43.350Z,1008.6
2017-01-21T00:29:24.000Z,1008.59
2017-01-21T00:30:04.736Z,1008.57
2017-01-21T00:30:45.451Z,1008.57
2017-01-21T00:31:26.103Z,1008.58
2017-01-21T00:32:06.766Z,1008.57
2017-01-21T00:32:47.408Z,1008.58
2017-01-21T00:33:28.134Z,1008.6
2017-01-21T00:34:08.686Z,1008.52
2017-01-21T00:34:49.392Z,1008.57
2017-01-21T00:35:30.092Z,1008.59
2017-01-21T00:36:10.719Z,1008.53
2017-01-21T00:36:51.391Z,1008.53
2017-01-21T00:37:32.093Z,1008.53
2017-01-21T00:38:12.729Z,1008.52
2017-01-21T00:38:53.455Z,1008.53
2017-01-21T00:39:34.122Z,1008.54
2017-01-21T00:40:14.747Z,1008.48
2017-01-21T00:40:55.410Z,1008.5
2017-01-21T00:41:36.087Z,1008.53
2017-01-21T00:42:16.729Z,1008.46
2017-01-21T00:42:57.401Z,1008.5
2017-01-21T00:43:38.030Z,1008.52
2017-01-21T00:44:18.670Z,1008.5
2017-01-21T00:44:59.311Z,1008.46
2017-01-21T00:45:40.006Z,1008.47
2017-01-21T00:46:20.634Z,1008.46
2017-01-21T00:47:01.300Z,1008.47
2017-01-21T00:47:41.957Z,1008.48
2017-01-21T00:48:22.578Z,1008.44
2017-01-21T00:49:03.303Z,1008.45
2017-01-21T00:49:44.650Z,1008.46
2017-01-21T00:50:25.294Z,1008.48
2017-01-21T00:51:05.983Z,1008.49
2017-01-21T00:51:46.682Z,1008.49
2017-01-21T00:52:27.312Z,1008.47
2017-01-21T00:53:07.949Z,1008.47
2017-01-21T00:53:48.639Z,1008.43
2017-01-21T00:54:29.274Z,1008.42
2017-01-21T00:55:09.983Z,1008.45
2017-01-21T00:55:50.631Z,1008.44
2017-01-21T00:56:31.282Z,1008.42
2017-01-21T00:57:11.920Z,1008.39
2017-01-21T00:57:52.589Z,1008.36
2017-01-21T00:58:33.224Z,1008.33
2017-01-21T00:59:13.853Z,1008.32
2017-01-21T00:59:54.484Z,1008.33
2017-01-21T01:00:35.121Z,1008.34
2017-01-21T01:01:15.870Z,1008.37
2017-01-21T01:01:56.557Z,1008.34
2017-01-21T01:02:37.291Z,1008.36
2017-01-21T01:03:17.856Z,1008.36
2017-01-21T01:03:58.493Z,1008.33
2017-01-21T01:04:39.129Z,1008.32
2017-01-21T01:05:19.838Z,1008.34
2017-01-21T01:06:00.517Z,1008.3
2017-01-21T01:06:41.192Z,1008.34
2017-01-21T01:07:21.843Z,1008.3
2017-01-21T01:08:02.474Z,1008.34
2017-01-21T01:08:43.204Z,1008.33
2017-01-21T01:09:23.845Z,1008.3
2017-01-21T01:10:04.515Z,1008.3
2017-01-21T01:10:45.144Z,1008.28
2017-01-21T01:11:25.786Z,1008.3
2017-01-21T01:12:06.423Z,1008.26
2017-01-21T01:12:47.049Z,1008.29
2017-01-21T01:13:27.677Z,1008.27
2017-01-21T01:14:08.335Z,1008.28
2017-01-21T01:14:48.965Z,1008.29
2017-01-21T01:15:29.628Z,1008.3
2017-01-21T01:16:10.261Z,1008.29
2017-01-21T01:16:50.883Z,1008.28
2017-01-21T01:17:31.516Z,1008.31
2017-01-21T01:18:12.149Z,1008.26
2017-01-21T01:18:52.805Z,1008.3
2017-01-21T01:19:33.495Z,1008.3
2017-01-21T01:20:14.139Z,1008.31
2017-01-21T01:20:54.829Z,1008.3
2017-01-21T01:21:35.453Z,1008.3
2017-01-21T01:22:16.077Z,1008.3
2017-01-21T01:22:56.767Z,1008.26
2017-01-21T01:23:37.408Z,1008.3
2017-01-21T01:24:18.116Z,1008.3
2017-01-21T01:24:58.873Z,1008.26
2017-01-21T01:25:39.518Z,1008.29
2017-01-21T01:26:20.164Z,1008.27
2017-01-21T01:27:00.869Z,1008.27
2017-01-21T01:27:41.565Z,1008.26
2017-01-21T01:28:22.191Z,1008.27
2017-01-21T01:29:02.872Z,1008.29
2017-01-21T01:29:43.539Z,1008.23
2017-01-21T01:30:24.191Z,1008.21
2017-01-21T01:31:04.822Z,1008.25
2017-01-21T01:31:45.519Z,1008.23
2017-01-21T01:32:26.172Z,1008.2
2017-01-21T01:33:06.867Z,1008.2
2017-01-21T01:33:47.491Z,1008.24
2017-01-21T01:34:28.124Z,1008.23
2017-01-21T01:35:08.872Z,1008.19
2017-01-21T01:35:49.579Z,1008.23
2017-01-21T01:36:30.240Z,1008.23
2017-01-21T01:37:10.847Z,1008.22
2017-01-21T01:37:51.515Z,1008.22
2017-01-21T01:38:32.129Z,1008.25
2017-01-21T01:39:12.841Z,1008.22
2017-01-21T01:39:53.587Z,1008.21
2017-01-21T01:40:34.263Z,1008.2
2017-01-21T01:41:14.889Z,1008.19
2017-01-21T01:41:55.581Z,1008.2
2017-01-21T01:42:36.266Z,1008.24
2017-01-21T01:43:16.908Z,1008.22
2017-01-21T01:43:57.649Z,1008.21
2017-01-21T01:44:38.359Z,1008.19
2017-01-21T01:45:19.068Z,1008.2
2017-01-21T01:45:59.624Z,1008.22
2017-01-21T01:46:40.322Z,1008.18
2017-01-21T01:47:20.995Z,1008.21
2017-01-21T01:48:01.621Z,1008.17
2017-01-21T01:48:42.344Z,1008.17
2017-01-21T01:49:23.016Z,1008.15
2017-01-21T01:50:03.645Z,1008.17
2017-01-21T01:50:44.339Z,1008.19
2017-01-21T01:51:24.976Z,1008.18
2017-01-21T01:52:05.600Z,1008.16
2017-01-21T01:52:46.293Z,1008.22
2017-01-21T01:53:26.932Z,1008.19
2017-01-21T01:54:07.560Z,1008.22
2017-01-21T01:54:48.208Z,1008.2
2017-01-21T01:55:28.842Z,1008.19
2017-01-21T01:56:09.471Z,1008.21
2017-01-21T01:56:50.149Z,1008.22
2017-01-21T01:57:30.836Z,1008.21
2017-01-21T01:58:11.461Z,1008.22
2017-01-21T01:58:52.089Z,1008.22
2017-01-21T01:59:32.767Z,1008.23
2017-01-21T02:00:13.408Z,1008.27
2017-01-21T02:00:54.082Z,1008.24
2017-01-21T02:01:34.707Z,1008.24
2017-01-21T02:02:15.337Z,1008.27
2017-01-21T02:02:56.041Z,1008.25
2017-01-21T02:03:36.696Z,1008.25
2017-01-21T02:04:17.320Z,1008.25
2017-01-21T02:04:58.037Z,1008.25
2017-01-21T02:05:38.667Z,1008.22
2017-01-21T02:06:19.293Z,1008.29
2017-01-21T02:06:59.928Z,1008.24
2017-01-21T02:07:40.662Z,1008.25
2017-01-21T02:08:21.310Z,1008.27
2017-01-21T02:09:01.941Z,1008.26
2017-01-21T02:09:42.622Z,1008.22
2017-01-21T02:10:23.245Z,1008.21
2017-01-21T02:11:03.974Z,1008.23
2017-01-21T02:11:44.601Z,1008.28
2017-01-21T02:12:25.306Z,1008.25
2017-01-21T02:13:05.895Z,1008.25
2017-01-21T02:13:46.564Z,1008.27
2017-01-21T02:14:27.263Z,1008.23
2017-01-21T02:15:07.854Z,1008.22
2017-01-21T02:15:48.479Z,1008.22
2017-01-21T02:16:29.100Z,1008.21
2017-01-21T02:17:09.821Z,1008.26
2017-01-21T02:17:50.544Z,1008.22
2017-01-21T02:18:31.179Z,1008.24
2017-01-21T02:19:11.805Z,1008.22
2017-01-21T02:19:52.455Z,1008.22
2017-01-21T02:20:33.083Z,1008.19
2017-01-21T02:21:13.709Z,1008.17
2017-01-21T02:21:54.395Z,1008.2
2017-01-21T02:22:35.104Z,1008.19
2017-01-21T02:23:15.771Z,1008.19
2017-01-21T02:23:56.469Z,1008.22
2017-01-21T02:24:37.110Z,1008.24
2017-01-21T02:25:17.737Z,1008.2
2017-01-21T02:25:58.418Z,1008.18
2017-01-21T02:26:39.038Z,1008.18
2017-01-21T02:27:19.686Z,1008.2
2017-01-21T02:28:00.347Z,1008.2
2017-01-21T02:28:41.074Z,1008.23
2017-01-21T02:29:21.707Z,1008.22
2017-01-21T02:30:02.432Z,1008.24
2017-01-21T02:30:43.116Z,1008.27
2017-01-21T02:31:23.822Z,1008.24
2017-01-21T02:32:04.466Z,1008.25
2017-01-21T02:32:45.182Z,1008.28
2017-01-21T02:33:25.808Z,1008.25
2017-01-21T02:34:06.430Z,1008.26
2017-01-21T02:34:47.153Z,1008.29
2017-01-21T02:35:27.853Z,1008.29
2017-01-21T02:36:08.488Z,1008.27
2017-01-21T02:36:49.160Z,1008.28
2017-01-21T02:37:29.787Z,1008.33
2017-01-21T02:38:10.413Z,1008.29
2017-01-21T02:38:51.143Z,1008.33
2017-01-21T02:39:31.888Z,1008.31
2017-01-21T02:40:12.619Z,1008.32
2017-01-21T02:40:53.249Z,1008.3
2017-01-21T02:41:33.881Z,1008.33
2017-01-21T02:42:14.533Z,1008.34
2017-01-21T02:42:55.167Z,1008.28
2017-01-21T02:43:35.897Z,1008.33
2017-01-21T02:44:16.562Z,1008.38
2017-01-21T02:44:57.190Z,1008.33
2017-01-21T02:45:37.870Z,1008.34
2017-01-21T02:46:18.488Z,1008.3
2017-01-21T02:46:59.124Z,1008.33
2017-01-21T02:47:39.788Z,1008.33
2017-01-21T02:48:20.408Z,1008.31
2017-01-21T02:49:01.028Z,1008.32
2017-01-21T02:49:41.654Z,1008.34
2017-01-21T02:50:22.275Z,1008.33
2017-01-21T02:51:02.907Z,1008.28
2017-01-21T02:51:43.582Z,1008.34
2017-01-21T02:52:24.205Z,1008.28
2017-01-21T02:53:04.837Z,1008.32
2017-01-21T02:53:45.493Z,1008.31
2017-01-21T02:54:26.215Z,1008.35
2017-01-21T02:55:06.839Z,1008.34
2017-01-21T02:55:47.531Z,1008.35
2017-01-21T02:56:28.233Z,1008.34
2017-01-21T02:57:08.864Z,1008.32
2017-01-21T02:57:49.583Z,1008.36
2017-01-21T02:58:30.259Z,1008.4
2017-01-21T02:59:10.910Z,1008.4
2017-01-21T02:59:51.556Z,1008.39
2017-01-21T03:00:32.295Z,1008.39
2017-01-21T03:01:12.980Z,1008.44
2017-01-21T03:01:53.615Z,1008.45
2017-01-21T03:02:34.284Z,1008.41
2017-01-21T03:03:14.909Z,1008.44
2017-01-21T03:03:55.526Z,1008.46
2017-01-21T03:04:36.188Z,1008.47
2017-01-21T03:05:16.882Z,1008.46
2017-01-21T03:05:57.513Z,1008.5
2017-01-21T03:06:38.248Z,1008.51
2017-01-21T03:07:18.912Z,1008.52
2017-01-21T03:07:59.547Z,1008.52
2017-01-21T03:08:40.190Z,1008.5
2017-01-21T03:09:20.831Z,1008.52
2017-01-21T03:10:01.452Z,1008.51
2017-01-21T03:10:42.153Z,1008.55
2017-01-21T03:11:22.774Z,1008.45
2017-01-21T03:12:03.394Z,1008.52
2017-01-21T03:12:44.051Z,1008.51
2017-01-21T03:13:24.791Z,1008.5
2017-01-21T03:14:05.418Z,1008.47
2017-01-21T03:14:46.050Z,1008.5
2017-01-21T03:15:26.762Z,1008.49
2017-01-21T03:16:07.407Z,1008.51
2017-01-21T03:16:48.107Z,1008.52
2017-01-21T03:17:28.849Z,1008.53
2017-01-21T03:18:09.594Z,1008.54
2017-01-21T03:18:50.212Z,1008.55
2017-01-21T03:19:30.891Z,1008.51
2017-01-21T03:20:11.618Z,1008.51
2017-01-21T03:20:52.257Z,1008.51
2017-01-21T03:21:32.972Z,1008.52
2017-01-21T03:22:13.665Z,1008.5
2017-01-21T03:22:54.322Z,1008.5
2017-01-21T03:23:34.978Z,1008.53
2017-01-21T03:24:15.625Z,1008.54
2017-01-21T03:24:56.336Z,1008.5
2017-01-21T03:25:36.970Z,1008.55
2017-01-21T03:26:17.681Z,1008.54
2017-01-21T03:26:58.399Z,1008.54
2017-01-21T03:27:39.033Z,1008.5
2017-01-21T03:28:19.702Z,1008.52
2017-01-21T03:29:00.320Z,1008.54
2017-01-21T03:29:40.969Z,1008.49
2017-01-21T03:30:21.629Z,1008.52
2017-01-21T03:31:02.336Z,1008.53
2017-01-21T03:31:42.968Z,1008.5
2017-01-21T03:32:23.605Z,1008.52
2017-01-21T03:33:04.250Z,1008.49
2017-01-21T03:33:44.881Z,1008.49
2017-01-21T03:34:25.526Z,1008.46
2017-01-21T03:35:06.201Z,1008.49
2017-01-21T03:35:46.827Z,1008.46
2017-01-21T03:36:28.489Z,1008.46
2017-01-21T03:37:09.137Z,1008.46
2017-01-21T03:37:49.771Z,1008.44
2017-01-21T03:38:30.487Z,1008.4
2017-01-21T03:39:11.116Z,1008.45
2017-01-21T03:39:51.766Z,1008.43
2017-01-21T03:40:32.423Z,1008.42
2017-01-21T03:41:13.042Z,1008.4
2017-01-21T03:41:53.662Z,1008.42
2017-01-21T03:42:34.344Z,1008.4
2017-01-21T03:43:15.092Z,1008.4
2017-01-21T03:43:55.815Z,1008.38
2017-01-21T03:44:36.454Z,1008.37
2017-01-21T03:45:17.078Z,1008.41
2017-01-21T03:45:57.714Z,1008.37
2017-01-21T03:46:38.347Z,1008.39
2017-01-21T03:47:19.076Z,1008.39
2017-01-21T03:47:59.784Z,1008.38
2017-01-21T03:48:40.408Z,1008.39
2017-01-21T03:49:21.058Z,1008.38
2017-01-21T03:50:01.732Z,1008.38
2017-01-21T03:50:42.369Z,1008.39
2017-01-21T03:51:23.120Z,1008.38
2017-01-21T03:52:03.752Z,1008.36
2017-01-21T03:52:44.466Z,1008.39
2017-01-21T03:53:25.051Z,1008.4
2017-01-21T03:54:05.780Z,1008.38
2017-01-21T03:54:46.416Z,1008.38
2017-01-21T03:55:27.041Z,1008.4
2017-01-21T03:56:07.676Z,1008.37
2017-01-21T03:56:48.386Z,1008.39
2017-01-21T03:57:29.020Z,1008.39
2017-01-21T03:58:09.705Z,1008.4
2017-01-21T03:58:50.375Z,1008.38
2017-01-21T03:59:31.016Z,1008.37
2017-01-21T04:00:11.715Z,1008.4
2017-01-21T04:00:52.441Z,1008.36
2017-01-21T04:01:33.076Z,1008.35
2017-01-21T04:02:13.744Z,1008.36
2017-01-21T04:02:54.368Z,1008.35
2017-01-21T04:03:34.999Z,1008.4
2017-01-21T04:04:15.678Z,1008.37
2017-01-21T04:04:56.378Z,1008.36
2017-01-21T04:05:37.068Z,1008.36
2017-01-21T04:06:17.631Z,1008.36
2017-01-21T04:06:58.291Z,1008.32
2017-01-21T04:07:38.911Z,1008.36
2017-01-21T04:08:19.553Z,1008.35
2017-01-21T04:09:00.240Z,1008.33
2017-01-21T04:09:40.862Z,1008.34
2017-01-21T04:10:21.579Z,1008.29
2017-01-21T04:11:02.246Z,1008.31
2017-01-21T04:11:42.941Z,1008.3
2017-01-21T04:12:23.576Z,1008.3
2017-01-21T04:13:04.220Z,1008.29
2017-01-21T04:13:44.873Z,1008.33
2017-01-21T04:14:25.533Z,1008.29
2017-01-21T04:15:06.167Z,1008.29
2017-01-21T04:15:46.793Z,1008.29
2017-01-21T04:16:27.425Z,1008.28
2017-01-21T04:17:08.850Z,1008.28
2017-01-21T04:17:49.486Z,1008.28
2017-01-21T04:18:30.168Z,1008.27
2017-01-21T04:19:10.800Z,1008.25
2017-01-21T04:19:51.426Z,1008.26
2017-01-21T04:20:32.097Z,1008.23
2017-01-21T04:21:12.730Z,1008.25
2017-01-21T04:21:53.351Z,1008.22
2017-01-21T04:22:34.026Z,1008.21
2017-01-21T04:23:14.657Z,1008.22
2017-01-21T04:23:55.293Z,1008.23
2017-01-21T04:24:36.002Z,1008.25
2017-01-21T04:25:16.633Z,1008.24
2017-01-21T04:25:57.270Z,1008.21
2017-01-21T04:26:37.977Z,1008.22
2017-01-21T04:27:18.654Z,1008.2
2017-01-21T04:27:59.310Z,1008.22
2017-01-21T04:28:40.008Z,1008.24
2017-01-21T04:29:20.639Z,1008.18
2017-01-21T04:30:01.293Z,1008.23
2017-01-21T04:30:41.970Z,1008.19
2017-01-21T04:31:22.743Z,1008.2
2017-01-21T04:32:03.378Z,1008.21
2017-01-21T04:32:44.004Z,1008.24
2017-01-21T04:33:24.681Z,1008.26
2017-01-21T04:34:05.299Z,1008.23
2017-01-21T04:34:45.930Z,1008.25
2017-01-21T04:35:26.596Z,1008.24
2017-01-21T04:36:07.323Z,1008.27
2017-01-21T04:36:47.959Z,1008.26
2017-01-21T04:37:28.663Z,1008.29
2017-01-21T04:38:09.331Z,1008.28
2017-01-21T04:38:49.967Z,1008.3
2017-01-21T04:39:30.623Z,1008.31
2017-01-21T04:40:11.344Z,1008.26
2017-01-21T04:40:51.973Z,1008.32
2017-01-21T04:41:32.676Z,1008.31
2017-01-21T04:42:13.384Z,1008.33
2017-01-21T04:42:54.015Z,1008.32
2017-01-21T04:43:34.643Z,1008.31
2017-01-21T04:44:15.360Z,1008.32
2017-01-21T04:44:56.064Z,1008.33
2017-01-21T04:45:36.688Z,1008.34
2017-01-21T04:46:17.431Z,1008.35
2017-01-21T04:46:58.084Z,1008.36
2017-01-21T04:47:38.702Z,1008.35
2017-01-21T04:48:19.423Z,1008.39
2017-01-21T04:49:00.116Z,1008.39
2017-01-21T04:49:40.748Z,1008.37
2017-01-21T04:50:21.413Z,1008.37
2017-01-21T04:51:02.132Z,1008.4
2017-01-21T04:51:42.760Z,1008.39
2017-01-21T04:52:23.399Z,1008.37
2017-01-21T04:53:04.116Z,1008.37
2017-01-21T04:53:44.813Z,1008.39
2017-01-21T04:54:25.445Z,1008.38
2017-01-21T04:55:06.069Z,1008.38
2017-01-21T04:55:46.766Z,1008.38
2017-01-21T04:56:27.400Z,1008.37
2017-01-21T04:57:08.108Z,1008.38
2017-01-21T04:57:48.841Z,1008.37
2017-01-21T04:58:29.467Z,1008.38
2017-01-21T04:59:10.135Z,1008.36
2017-01-21T04:59:50.754Z,1008.35
2017-01-21T05:00:31.393Z,1008.34
2017-01-21T05:01:12.053Z,1008.4
2017-01-21T05:01:52.688Z,1008.35
2017-01-21T05:02:33.329Z,1008.33
2017-01-21T05:03:13.973Z,1008.34
2017-01-21T05:03:54.689Z,1008.37
2017-01-21T05:04:35.317Z,1008.33
2017-01-21T05:05:15.948Z,1008.36
2017-01-21T05:05:56.627Z,1008.34
2017-01-21T05:06:37.258Z,1008.35
2017-01-21T05:07:17.969Z,1008.32
2017-01-21T05:07:58.666Z,1008.33
2017-01-21T05:08:39.280Z,1008.32
2017-01-21T05:09:19.914Z,1008.31
2017-01-21T05:10:00.544Z,1008.32
2017-01-21T05:10:41.204Z,1008.32
2017-01-21T05:11:21.825Z,1008.33
2017-01-21T05:12:02.466Z,1008.29
2017-01-21T05:12:43.097Z,1008.3
2017-01-21T05:13:23.754Z,1008.31
2017-01-21T05:14:04.483Z,1008.27
2017-01-21T05:14:45.121Z,1008.31
2017-01-21T05:15:25.745Z,1008.27
2017-01-21T05:16:06.465Z,1008.25
2017-01-21T05:16:47.117Z,1008.25
2017-01-21T05:17:27.752Z,1008.28
2017-01-21T05:18:08.381Z,1008.27
2017-01-21T05:18:49.014Z,1008.23
2017-01-21T05:19:29.655Z,1008.23
2017-01-21T05:20:10.329Z,1008.25
2017-01-21T05:20:50.984Z,1008.25
2017-01-21T05:21:31.630Z,1008.25
2017-01-21T05:22:12.290Z,1008.24
2017-01-21T05:22:52.992Z,1008.22
2017-01-21T05:23:33.610Z,1008.22
2017-01-21T05:24:14.304Z,1008.24
2017-01-21T05:24:54.938Z,1008.21
2017-01-21T05:25:35.597Z,1008.17
2017-01-21T05:26:16.283Z,1008.18
2017-01-21T05:26:57.007Z,1008.18
2017-01-21T05:27:37.626Z,1008.2
2017-01-21T05:28:18.337Z,1008.2
2017-01-21T05:28:59.050Z,1008.19
2017-01-21T05:29:39.695Z,1008.2
2017-01-21T05:30:20.385Z,1008.2
2017-01-21T05:31:01.014Z,1008.21
2017-01-21T05:31:41.665Z,1008.22
2017-01-21T05:32:22.304Z,1008.22
2017-01-21T05:33:03.003Z,1008.21
2017-01-21T05:33:43.632Z,1008.22
2017-01-21T05:34:24.265Z,1008.2
2017-01-21T05:35:04.896Z,1008.25
2017-01-21T05:35:45.576Z,1008.18
2017-01-21T05:36:26.215Z,1008.21
2017-01-21T05:37:06.873Z,1008.2
2017-01-21T05:37:47.502Z,1008.22
2017-01-21T05:38:28.131Z,1008.23
2017-01-21T05:39:08.816Z,1008.2
2017-01-21T05:39:49.528Z,1008.23
2017-01-21T05:40:30.170Z,1008.25
2017-01-21T05:41:10.797Z,1008.28
2017-01-21T05:41:51.456Z,1008.23
2017-01-21T05:42:32.100Z,1008.23
2017-01-21T05:43:12.814Z,1008.26
2017-01-21T05:43:53.536Z,1008.27
2017-01-21T05:44:34.172Z,1008.26
2017-01-21T05:45:14.856Z,1008.25
2017-01-21T05:45:55.568Z,1008.28
2017-01-21T05:46:36.206Z,1008.27
2017-01-21T05:47:16.850Z,1008.3
2017-01-21T05:47:57.566Z,1008.29
2017-01-21T05:48:38.223Z,1008.31
2017-01-21T05:49:18.854Z,1008.33
2017-01-21T05:49:59.490Z,1008.32
2017-01-21T05:50:40.206Z,1008.32
2017-01-21T05:51:20.830Z,1008.32
2017-01-21T05:52:01.571Z,1008.33
2017-01-21T05:52:42.226Z,1008.33
2017-01-21T05:53:22.857Z,1008.34
2017-01-21T05:54:03.494Z,1008.37
2017-01-21T05:54:44.163Z,1008.37
2017-01-21T05:55:24.797Z,1008.34
2017-01-21T05:56:05.451Z,1008.36
2017-01-21T05:56:46.080Z,1008.38
2017-01-21T05:57:26.709Z,1008.36
2017-01-21T05:58:07.410Z,1008.39
2017-01-21T05:58:48.123Z,1008.37
2017-01-21T05:59:28.769Z,1008.41
2017-01-21T06:00:09.461Z,1008.42
2017-01-21T06:00:50.153Z,1008.43
2017-01-21T06:01:30.845Z,1008.43
2017-01-21T06:02:11.483Z,1008.43
2017-01-21T06:02:52.119Z,1008.44
2017-01-21T06:03:32.820Z,1008.45
2017-01-21T06:04:13.443Z,1008.47
2017-01-21T06:04:54.179Z,1008.44
2017-01-21T06:05:34.832Z,1008.46
2017-01-21T06:06:15.457Z,1008.51
2017-01-21T06:06:56.180Z,1008.47
2017-01-21T06:07:36.811Z,1008.48
2017-01-21T06:08:17.434Z,1008.47
2017-01-21T06:08:58.137Z,1008.49
2017-01-21T06:09:38.822Z,1008.45
2017-01-21T06:10:19.452Z,1008.51
2017-01-21T06:11:00.077Z,1008.5
2017-01-21T06:11:40.746Z,1008.47
2017-01-21T06:12:21.382Z,1008.52
2017-01-21T06:13:02.595Z,1008.51
2017-01-21T06:13:43.237Z,1008.52
2017-01-21T06:14:23.901Z,1008.54
2017-01-21T06:15:04.638Z,1008.53
2017-01-21T06:15:45.271Z,1008.53
2017-01-21T06:16:25.910Z,1008.55
2017-01-21T06:17:06.600Z,1008.57
2017-01-21T06:17:47.230Z,1008.54
2017-01-21T06:18:27.946Z,1008.55
2017-01-21T06:19:08.659Z,1008.56
2017-01-21T06:19:49.349Z,1008.59
2017-01-21T06:20:29.965Z,1008.61
2017-01-21T06:21:10.659Z,1008.63
2017-01-21T06:21:51.282Z,1008.63
2017-01-21T06:22:31.912Z,1008.63
2017-01-21T06:23:12.543Z,1008.65
2017-01-21T06:23:53.205Z,1008.65
2017-01-21T06:24:33.840Z,1008.67
2017-01-21T06:25:14.508Z,1008.69
2017-01-21T06:25:55.147Z,1008.71
2017-01-21T06:26:35.773Z,1008.68
2017-01-21T06:27:16.445Z,1008.65
2017-01-21T06:27:57.073Z,1008.67
2017-01-21T06:28:37.699Z,1008.67
2017-01-21T06:29:18.369Z,1008.7
2017-01-21T06:29:59.082Z,1008.68
2017-01-21T06:30:39.709Z,1008.67
2017-01-21T06:31:20.431Z,1008.7
2017-01-21T06:32:01.098Z,1008.72
2017-01-21T06:32:41.729Z,1008.7
2017-01-21T06:33:22.398Z,1008.72
2017-01-21T06:34:03.031Z,1008.72
2017-01-21T06:34:43.660Z,1008.71
2017-01-21T06:35:24.326Z,1008.71
2017-01-21T06:36:05.046Z,1008.77
2017-01-21T06:36:45.665Z,1008.77
2017-01-21T06:37:26.371Z,1008.74
2017-01-21T06:38:07.167Z,1008.78
2017-01-21T06:38:47.839Z,1008.74
2017-01-21T06:39:28.469Z,1008.72
2017-01-21T06:40:09.156Z,1008.74
2017-01-21T06:40:49.784Z,1008.78
2017-01-21T06:41:30.410Z,1008.81
2017-01-21T06:42:11.152Z,1008.74
2017-01-21T06:42:51.783Z,1008.8
2017-01-21T06:43:32.400Z,1008.8
2017-01-21T06:44:13.072Z,1008.8
2017-01-21T06:44:53.696Z,1008.77
2017-01-21T06:45:34.326Z,1008.8
2017-01-21T06:46:15.988Z,1008.81
2017-01-21T06:46:56.631Z,1008.8
2017-01-21T06:47:37.257Z,1008.84
2017-01-21T06:48:17.964Z,1008.83
2017-01-21T06:48:58.669Z,1008.86
2017-01-21T06:49:39.301Z,1008.83
2017-01-21T06:50:19.933Z,1008.81
2017-01-21T06:51:00.626Z,1008.87
2017-01-21T06:51:41.248Z,1008.88
2017-01-21T06:52:21.957Z,1008.89
2017-01-21T06:53:02.631Z,1008.87
2017-01-21T06:53:43.265Z,1008.9
2017-01-21T06:54:23.908Z,1008.88
2017-01-21T06:55:04.565Z,1008.92
2017-01-21T06:55:45.211Z,1008.93
2017-01-21T06:56:25.864Z,1008.97
2017-01-21T06:57:06.512Z,1008.97
2017-01-21T06:57:47.142Z,1008.96
2017-01-21T06:58:27.783Z,1008.99
2017-01-21T06:59:08.516Z,1009.04
2017-01-21T06:59:49.154Z,1009.07
2017-01-21T07:00:29.788Z,1009.06
2017-01-21T07:01:10.479Z,1009.09
2017-01-21T07:01:51.198Z,1009.06
2017-01-21T07:02:31.830Z,1009.08
2017-01-21T07:03:12.464Z,1009.1
2017-01-21T07:03:53.098Z,1009.13
2017-01-21T07:04:33.730Z,1009.13
2017-01-21T07:05:14.455Z,1009.13
2017-01-21T07:05:55.136Z,1009.13
2017-01-21T07:06:35.775Z,1009.15
2017-01-21T07:07:16.423Z,1009.16
2017-01-21T07:07:57.120Z,1009.19
2017-01-21T07:08:37.747Z,1009.19
2017-01-21T07:09:18.442Z,1009.19
2017-01-21T07:09:59.067Z,1009.14
2017-01-21T07:10:39.705Z,1009.14
2017-01-21T07:11:20.337Z,1009.18
2017-01-21T07:12:01.053Z,1009.2
2017-01-21T07:12:41.683Z,1009.25
2017-01-21T07:13:22.402Z,1009.23
2017-01-21T07:14:03.116Z,1009.22
2017-01-21T07:14:43.803Z,1009.27
2017-01-21T07:15:24.440Z,1009.22
2017-01-21T07:16:05.166Z,1009.25
2017-01-21T07:16:45.863Z,1009.25
2017-01-21T07:17:26.489Z,1009.25
2017-01-21T07:18:07.179Z,1009.24
2017-01-21T07:18:47.861Z,1009.26
2017-01-21T07:19:28.485Z,1009.26
2017-01-21T07:20:09.144Z,1009.25
2017-01-21T07:20:49.769Z,1009.28
2017-01-21T07:21:30.423Z,1009.25
2017-01-21T07:22:11.061Z,1009.22
2017-01-21T07:22:51.715Z,1009.23
2017-01-21T07:23:32.342Z,1009.2
2017-01-21T07:24:12.966Z,1009.22
2017-01-21T07:24:53.589Z,1009.2
2017-01-21T07:25:34.218Z,1009.25
2017-01-21T07:26:14.932Z,1009.22
2017-01-21T07:26:55.563Z,1009.22
2017-01-21T07:27:36.185Z,1009.25
2017-01-21T07:28:16.917Z,1009.22
2017-01-21T07:28:57.542Z,1009.18
2017-01-21T07:29:38.175Z,1009.25
2017-01-21T07:30:18.804Z,1009.24
2017-01-21T07:30:59.443Z,1009.21
2017-01-21T07:31:40.069Z,1009.25
2017-01-21T07:33:38.883Z,1009.26
2017-01-21T07:34:19.530Z,1009.24
2017-01-21T07:35:00.174Z,1009.28
2017-01-21T07:35:40.807Z,1009.26
2017-01-21T07:36:21.485Z,1009.34
2017-01-21T07:37:02.110Z,1009.28
2017-01-21T07:37:42.737Z,1009.3
2017-01-21T07:38:23.409Z,1009.31
2017-01-21T07:39:04.140Z,1009.33
2017-01-21T07:39:44.754Z,1009.33
2017-01-21T07:40:25.469Z,1009.31
2017-01-21T07:41:06.135Z,1009.33
2017-01-21T07:41:46.757Z,1009.31
2017-01-21T07:42:27.436Z,1009.32
2017-01-21T07:43:08.061Z,1009.34
2017-01-21T07:43:48.690Z,1009.36
2017-01-21T07:44:29.350Z,1009.38
2017-01-21T07:45:10.062Z,1009.32
2017-01-21T07:45:50.688Z,1009.36
2017-01-21T07:46:31.353Z,1009.36
2017-01-21T07:47:12.063Z,1009.37
2017-01-21T07:47:52.696Z,1009.37
2017-01-21T07:48:33.314Z,1009.4
2017-01-21T07:49:13.986Z,1009.39
2017-01-21T07:49:54.606Z,1009.43
2017-01-21T07:50:35.232Z,1009.45
2017-01-21T07:51:15.907Z,1009.44
2017-01-21T07:51:56.536Z,1009.47
2017-01-21T07:52:37.206Z,1009.51
2017-01-21T07:53:17.833Z,1009.48
2017-01-21T07:53:58.466Z,1009.51
2017-01-21T07:54:39.161Z,1009.51
2017-01-21T07:55:19.791Z,1009.52
2017-01-21T07:56:00.441Z,1009.48
2017-01-21T07:56:41.137Z,1009.53
2017-01-21T07:57:21.848Z,1009.53
2017-01-21T07:58:02.471Z,1009.54
2017-01-21T07:58:43.104Z,1009.56
2017-01-21T07:59:23.831Z,1009.55
2017-01-21T08:00:04.457Z,1009.63
2017-01-21T08:00:45.090Z,1009.59
2017-01-21T08:01:25.803Z,1009.58
2017-01-21T08:02:06.488Z,1009.59
2017-01-21T08:02:47.116Z,1009.57
2017-01-21T08:03:27.820Z,1009.58
2017-01-21T08:04:08.548Z,1009.59
2017-01-21T08:04:49.187Z,1009.58
2017-01-21T08:05:30.387Z,1009.63
2017-01-21T08:06:11.041Z,1009.61
2017-01-21T08:06:51.671Z,1009.63
2017-01-21T08:07:32.312Z,1009.6
2017-01-21T08:08:12.937Z,1009.61
2017-01-21T08:08:53.694Z,1009.61
2017-01-21T08:09:34.366Z,1009.66
2017-01-21T08:10:14.986Z,1009.64
2017-01-21T08:10:55.696Z,1009.68
2017-01-21T08:11:36.322Z,1009.65
2017-01-21T08:12:16.953Z,1009.64
2017-01-21T08:12:57.690Z,1009.66
2017-01-21T08:13:38.399Z,1009.66
2017-01-21T08:14:19.035Z,1009.69
2017-01-21T08:14:59.666Z,1009.7